createdAt,value
2024-02-10T00:04:19.089Z,55.85
2024-02-10T00:09:11.664Z,54.47
2024-02-10T00:14:03.761Z,54.35
2024-02-10T00:18:58.954Z,53.15
2024-02-10T00:23:50.956Z,53.25
2024-02-10T00:28:42.744Z,53.03
2024-02-10T00:33:35.605Z,46.75
2024-02-10T00:38:27.531Z,52.38
2024-02-10T00:43:19.301Z,48.33
2024-02-10T00:48:11.260Z,55.67
2024-02-10T00:53:04.432Z,48.92
2024-02-10T00:57:56.252Z,47.00
2024-02-10T01:02:48.095Z,52.72
2024-02-10T01:07:42.735Z,51.72
2024-02-10T01:12:35.019Z,46.78
2024-02-10T01:17:27.773Z,47.80
2024-02-10T01:22:27.414Z,44.10
2024-02-10T01:27:19.598Z,47.92
2024-02-10T01:32:11.918Z,51.28
2024-02-10T01:37:03.945Z,46.90
2024-02-10T01:41:55.710Z,46.00
2024-02-10T01:46:48.493Z,40.47
2024-02-10T01:51:40.344Z,48.10
2024-02-10T01:56:35.204Z,47.47
2024-02-10T02:01:27.496Z,46.70
2024-02-10T02:06:20.217Z,39.08
2024-02-10T02:11:12.399Z,53.08
2024-02-10T02:16:04.347Z,45.63
2024-02-10T02:20:56.134Z,39.67
2024-02-10T02:25:50.163Z,41.08
2024-02-10T02:30:41.963Z,41.38
2024-02-10T02:35:33.793Z,41.90
2024-02-10T02:40:27.368Z,49.95
2024-02-10T02:45:19.286Z,43.08
2024-02-10T02:50:11.395Z,41.95
2024-02-10T02:55:03.718Z,39.20
2024-02-10T02:59:55.933Z,47.67
2024-02-10T03:04:47.715Z,45.97
2024-02-10T03:09:39.545Z,46.78
2024-02-10T03:14:31.400Z,46.80
2024-02-10T03:19:23.284Z,50.15
2024-02-10T03:24:15.167Z,48.45
2024-02-10T03:29:07.722Z,48.28
2024-02-10T03:34:00.201Z,44.03
2024-02-10T03:38:56.197Z,44.50
2024-02-10T03:43:48.084Z,48.28
2024-02-10T03:48:41.505Z,47.22
2024-02-10T03:53:34.229Z,57.22
2024-02-10T03:58:26.594Z,49.78
2024-02-10T04:03:18.834Z,57.58
2024-02-10T04:08:11.470Z,58.65
2024-02-10T04:13:03.690Z,59.90
2024-02-10T04:17:57.356Z,55.17
2024-02-10T04:22:49.300Z,49.53
2024-02-10T04:27:41.502Z,57.22
2024-02-10T04:32:34.052Z,51.50
2024-02-10T04:37:26.043Z,48.53
2024-02-10T04:42:17.816Z,53.40
2024-02-10T04:47:11.219Z,56.65
2024-02-10T04:52:03.354Z,45.00
2024-02-10T04:56:55.199Z,59.72
2024-02-10T05:01:46.972Z,48.92
2024-02-10T05:06:38.790Z,50.42
2024-02-10T05:11:36.529Z,47.92
2024-02-10T05:16:29.403Z,54.33
2024-02-10T05:21:24.126Z,46.85
2024-02-10T05:26:19.571Z,46.50
2024-02-10T05:31:12.527Z,43.83
2024-02-10T05:36:04.585Z,42.92
2024-02-10T05:40:56.382Z,42.03
2024-02-10T05:45:48.881Z,49.00
2024-02-10T05:50:40.681Z,42.30
2024-02-10T05:55:33.170Z,44.75
2024-02-10T06:00:25.031Z,44.17
2024-02-10T06:05:17.404Z,41.53
2024-02-10T06:10:14.069Z,41.25
2024-02-10T06:15:11.187Z,41.60
2024-02-10T06:20:24.097Z,48.55
2024-02-10T06:25:26.689Z,43.70
2024-02-10T06:30:20.307Z,48.97
2024-02-10T06:35:13.163Z,50.33
2024-02-10T06:40:06.600Z,41.85
2024-02-10T06:45:00.582Z,41.97
2024-02-10T06:49:52.391Z,51.47
2024-02-10T06:54:44.235Z,46.13
2024-02-10T06:59:39.482Z,41.90
2024-02-10T07:04:31.337Z,41.88
2024-02-10T07:09:23.296Z,48.30
2024-02-10T07:14:15.841Z,40.85
2024-02-10T07:19:07.920Z,44.13
2024-02-10T07:24:03.548Z,45.10
2024-02-10T07:28:57.240Z,48.60
2024-02-10T07:33:49.144Z,100.60
2024-02-10T07:38:41.004Z,71.53
2024-02-10T07:43:33.523Z,58.80
2024-02-10T07:48:25.450Z,53.40
2024-02-10T07:53:17.283Z,50.67
2024-02-10T07:58:10.899Z,53.22
2024-02-10T08:03:05.269Z,52.92
2024-02-10T08:08:02.966Z,46.72
2024-02-10T08:12:55.390Z,60.63
2024-02-10T08:17:47.329Z,45.58
2024-02-10T08:22:39.226Z,50.17
2024-02-10T08:27:32.968Z,55.00
2024-02-10T08:32:25.913Z,43.47
2024-02-10T08:37:18.499Z,48.60
2024-02-10T08:42:11.118Z,46.08
2024-02-10T08:47:07.703Z,65.32
2024-02-10T08:52:08.352Z,52.08
2024-02-10T08:57:11.425Z,46.58
2024-02-10T09:02:04.208Z,52.13
2024-02-10T09:06:56.197Z,43.92
2024-02-10T09:11:49.202Z,51.95
2024-02-10T09:16:41.202Z,45.75
2024-02-10T09:21:33.163Z,45.22
2024-02-10T09:26:26.483Z,41.28
2024-02-10T09:31:21.326Z,46.85
2024-02-10T09:36:13.391Z,43.22
2024-02-10T09:41:06.310Z,39.25
2024-02-10T09:45:58.586Z,39.40
2024-02-10T09:50:50.549Z,37.10
2024-02-10T09:55:43.496Z,41.25
2024-02-10T10:00:39.477Z,43.72
2024-02-10T10:05:38.479Z,39.55
2024-02-10T10:10:30.302Z,42.97
2024-02-10T10:15:22.196Z,48.95
2024-02-10T10:20:14.180Z,44.50
2024-02-10T10:25:09.579Z,39.92
2024-02-10T10:30:03.116Z,37.75
2024-02-10T10:34:59.765Z,45.00
2024-02-10T10:39:53.081Z,34.20
2024-02-10T10:44:45.374Z,39.30
2024-02-10T10:49:37.834Z,37.53
2024-02-10T10:54:41.676Z,51.95
2024-02-10T10:59:37.353Z,52.53
2024-02-10T11:04:29.257Z,54.78
2024-02-10T11:09:23.148Z,50.03
2024-02-10T11:14:15.104Z,44.63
2024-02-10T11:19:10.142Z,53.63
2024-02-10T11:24:19.909Z,45.40
2024-02-10T11:29:19.969Z,42.35
2024-02-10T11:34:19.489Z,53.95
2024-02-10T11:39:12.054Z,61.40
2024-02-10T11:44:04.247Z,61.00
2024-02-10T11:49:01.903Z,50.03
2024-02-10T11:53:53.852Z,59.20
2024-02-10T11:58:48.504Z,50.85
2024-02-10T12:03:44.035Z,52.53
2024-02-10T12:08:36.601Z,56.88
2024-02-10T12:13:28.482Z,64.50
2024-02-10T12:18:21.053Z,64.57
2024-02-10T12:23:14.946Z,50.13
2024-02-10T12:28:07.054Z,57.05
2024-02-10T12:33:00.019Z,53.90
2024-02-10T12:37:52.010Z,66.28
2024-02-10T12:42:43.902Z,63.17
2024-02-10T12:47:39.130Z,59.30
2024-02-10T12:52:31.906Z,62.42
2024-02-10T12:57:23.883Z,61.67
2024-02-10T13:02:15.702Z,57.80
2024-02-10T13:07:07.631Z,67.63
2024-02-10T13:11:59.485Z,63.15
2024-02-10T13:16:51.349Z,64.38
2024-02-10T13:21:44.772Z,57.33
2024-02-10T13:26:36.647Z,71.28
2024-02-10T13:31:28.747Z,66.60
2024-02-10T13:36:23.137Z,65.32
2024-02-10T13:41:33.820Z,57.65
2024-02-10T13:46:44.414Z,60.83
2024-02-10T13:51:55.044Z,83.88
2024-02-10T13:57:05.912Z,68.65
2024-02-10T14:02:16.366Z,70.35
2024-02-10T14:07:27.211Z,59.55
2024-02-10T14:12:19.479Z,59.35
2024-02-10T14:17:16.366Z,52.83
2024-02-10T14:22:13.628Z,55.03
2024-02-10T14:27:15.424Z,56.10
2024-02-10T14:32:21.668Z,50.40
2024-02-10T14:37:32.525Z,45.28
2024-02-10T14:42:24.376Z,55.28
2024-02-10T14:47:18.163Z,49.13
2024-02-10T14:52:12.904Z,45.33
2024-02-10T14:57:05.123Z,42.58
2024-02-10T15:01:58.279Z,45.85
2024-02-10T15:06:50.181Z,47.60
2024-02-10T15:11:41.984Z,50.47
2024-02-10T15:16:34.033Z,50.58
2024-02-10T15:21:30.782Z,36.47
2024-02-10T15:26:23.517Z,35.42
2024-02-10T15:31:20.301Z,25.42
2024-02-10T15:36:28.138Z,28.73
2024-02-10T15:41:20.358Z,37.10
2024-02-10T15:46:12.129Z,25.50
2024-02-10T15:51:04.663Z,40.00
2024-02-10T15:55:56.829Z,26.45
2024-02-10T16:00:50.267Z,24.83
2024-02-10T16:05:42.282Z,32.13
2024-02-10T16:10:34.927Z,37.25
2024-02-10T16:15:28.184Z,35.50
2024-02-10T16:20:23.092Z,35.60
2024-02-10T16:25:14.987Z,67.97
2024-02-10T16:30:10.830Z,39.88
2024-02-10T16:35:06.210Z,41.53
2024-02-10T16:40:01.657Z,33.22
2024-02-10T16:44:55.357Z,48.53
2024-02-10T16:49:50.965Z,39.13
2024-02-10T16:54:42.757Z,33.83
2024-02-10T16:59:34.709Z,52.85
2024-02-10T17:04:26.583Z,45.97
2024-02-10T17:09:19.037Z,47.90
2024-02-10T17:14:10.966Z,51.50
2024-02-10T17:19:03.394Z,54.38
2024-02-10T17:23:55.293Z,55.08
2024-02-10T17:28:47.246Z,55.38
2024-02-10T17:33:43.004Z,50.08
2024-02-10T17:38:35.546Z,54.53
2024-02-10T17:43:27.589Z,59.17
2024-02-10T17:48:24.955Z,58.47
2024-02-10T17:53:29.170Z,48.80
2024-02-10T17:58:22.683Z,62.40
2024-02-10T18:03:14.770Z,52.78
2024-02-10T18:08:07.311Z,43.03
2024-02-10T18:13:02.174Z,44.30
2024-02-10T18:17:54.022Z,45.42
2024-02-10T18:22:46.805Z,50.35
2024-02-10T18:27:41.330Z,66.82
2024-02-10T18:32:33.609Z,61.67
2024-02-10T18:37:26.602Z,71.47
2024-02-10T18:42:18.451Z,65.68
2024-02-10T18:47:10.379Z,75.60
2024-02-10T18:52:04.777Z,62.42
2024-02-10T18:56:59.177Z,60.28
2024-02-10T19:01:58.816Z,67.63
2024-02-10T19:06:51.120Z,79.72
2024-02-10T19:11:43.260Z,75.72
2024-02-10T19:16:35.094Z,62.30
2024-02-10T19:21:27.637Z,70.20
2024-02-10T19:26:21.476Z,80.68
2024-02-10T19:31:15.208Z,59.63
2024-02-10T19:36:09.229Z,79.75
2024-02-10T19:41:01.239Z,62.15
2024-02-10T19:45:53.086Z,65.43
2024-02-10T19:50:47.009Z,82.47
2024-02-10T19:55:38.918Z,84.07
2024-02-10T20:00:30.811Z,80.75
2024-02-10T20:05:23.306Z,76.47
2024-02-10T20:10:19.762Z,72.93
2024-02-10T20:15:12.245Z,77.63
2024-02-10T20:20:08.412Z,58.03
2024-02-10T20:25:00.611Z,59.38
2024-02-10T20:29:54.344Z,56.67
2024-02-10T20:34:46.809Z,76.07
2024-02-10T20:39:40.765Z,68.95
2024-02-10T20:44:32.564Z,65.28
2024-02-10T20:49:24.891Z,63.63
2024-02-10T20:54:18.905Z,48.63
2024-02-10T20:59:11.088Z,53.78
2024-02-10T21:04:07.893Z,62.38
2024-02-10T21:09:02.595Z,48.22
2024-02-10T21:13:54.399Z,49.25
2024-02-10T21:18:49.678Z,44.65
2024-02-10T21:23:41.464Z,74.10
2024-02-10T21:28:37.292Z,58.92
2024-02-10T21:33:29.588Z,39.67
2024-02-10T21:38:21.421Z,51.03
2024-02-10T21:43:13.189Z,46.80
2024-02-10T21:48:05.277Z,53.88
2024-02-10T21:52:57.215Z,53.95
2024-02-10T21:57:49.013Z,61.42
2024-02-10T22:02:40.881Z,43.47
2024-02-10T22:07:33.792Z,44.70
2024-02-10T22:12:25.573Z,46.65
2024-02-10T22:17:17.446Z,43.53
2024-02-10T22:22:11.076Z,41.22
2024-02-10T22:27:03.342Z,51.22
2024-02-10T22:31:55.357Z,42.47
2024-02-10T22:36:47.550Z,49.35
2024-02-10T22:41:42.257Z,53.08
2024-02-10T22:46:34.030Z,49.20
2024-02-10T22:51:25.883Z,44.65
2024-02-10T22:56:18.621Z,55.22
2024-02-10T23:01:10.841Z,45.78
2024-02-10T23:06:02.868Z,55.30
2024-02-10T23:10:54.752Z,41.75
2024-02-10T23:15:49.324Z,42.13
2024-02-10T23:20:48.226Z,38.90
2024-02-10T23:25:50.671Z,51.33
2024-02-10T23:30:53.094Z,42.55
2024-02-10T23:35:45.064Z,53.15
2024-02-10T23:40:36.945Z,52.83
2024-02-10T23:45:28.846Z,49.47
2024-02-10T23:50:21.069Z,43.15
2024-02-10T23:55:14.553Z,57.20
